createdAt,value
2018-05-17T00:01:19.302Z,91.69
2018-05-17T00:02:19.218Z,91.22
2018-05-17T00:04:12.505Z,91.22
2018-05-17T00:05:12.421Z,91.50
2018-05-17T00:07:05.694Z,91.60
2018-05-17T00:08:05.622Z,91.69
2018-05-17T00:09:58.916Z,91.98
2018-05-17T00:10:58.824Z,91.88
2018-05-17T00:12:52.094Z,92.08
2018-05-17T00:13:52.027Z,92.17
2018-05-17T00:15:45.423Z,93.08
2018-05-17T00:16:45.228Z,93.17
2018-05-17T00:18:38.496Z,93.08
2018-05-17T00:19:38.431Z,93.88
2018-05-17T00:21:31.719Z,92.74
2018-05-17T00:22:31.633Z,93.22
2018-05-17T00:24:24.921Z,93.22
2018-05-17T00:25:24.834Z,93.17
2018-05-17T00:27:18.093Z,94.03
2018-05-17T00:28:18.031Z,93.65
2018-05-17T00:30:11.427Z,93.46
2018-05-17T00:31:11.228Z,93.27
2018-05-17T00:33:04.517Z,93.84
2018-05-17T00:34:04.429Z,93.74
2018-05-17T00:35:57.697Z,94.03
2018-05-17T00:36:57.629Z,94.32
2018-05-17T00:38:50.917Z,94.03
2018-05-17T00:39:50.831Z,94.22
2018-05-17T00:41:44.099Z,93.93
2018-05-17T00:42:44.032Z,94.13
2018-05-17T00:44:37.342Z,94.89
2018-05-17T00:45:37.254Z,95.17
2018-05-17T00:47:30.513Z,95.56
2018-05-17T00:48:30.451Z,95.08
2018-05-17T00:50:23.736Z,95.94
2018-05-17T00:51:23.646Z,96.32
2018-05-17T00:53:16.952Z,95.65
2018-05-17T00:54:16.844Z,95.75
2018-05-17T00:56:10.113Z,95.84
2018-05-17T00:57:10.046Z,97.17
2018-05-17T00:59:03.343Z,97.08
2018-05-17T01:00:03.256Z,96.98
2018-05-17T01:01:56.523Z,96.98
2018-05-17T01:02:56.455Z,97.46
2018-05-17T01:04:49.743Z,97.08
2018-05-17T01:05:49.656Z,97.17
2018-05-17T01:07:42.915Z,97.27
2018-05-17T01:08:42.846Z,97.36
2018-05-17T01:10:36.137Z,97.08
2018-05-17T01:11:36.048Z,97.27
2018-05-17T01:13:29.425Z,97.84
2018-05-17T01:14:29.257Z,98.13
2018-05-17T01:16:22.544Z,98.13
2018-05-17T01:17:22.455Z,98.70
2018-05-17T01:19:15.743Z,97.84
2018-05-17T01:20:15.661Z,98.70
2018-05-17T01:22:09.033Z,98.89
2018-05-17T01:23:08.860Z,99.55
2018-05-17T01:25:02.255Z,99.99
2018-05-17T01:26:02.060Z,99.84
2018-05-17T01:27:55.323Z,99.99
2018-05-17T01:28:55.256Z,99.99
2018-05-17T01:30:48.654Z,99.94
2018-05-17T01:31:48.456Z,99.99
2018-05-17T01:33:41.728Z,99.99
2018-05-17T01:34:41.659Z,99.99
2018-05-17T01:36:34.948Z,99.99
2018-05-17T01:37:34.858Z,99.99
2018-05-17T01:39:28.126Z,99.99
2018-05-17T01:40:28.061Z,99.75
2018-05-17T01:42:21.342Z,99.99
2018-05-17T01:43:21.261Z,99.99
2018-05-17T01:45:14.548Z,99.99
2018-05-17T01:46:14.460Z,99.46
2018-05-17T01:48:07.729Z,99.99
2018-05-17T01:49:07.663Z,99.99
2018-05-17T01:51:00.952Z,99.99
2018-05-17T01:52:00.864Z,99.99
2018-05-17T01:53:54.133Z,99.99
2018-05-17T01:54:54.065Z,99.99
2018-05-17T01:56:47.354Z,99.99
2018-05-17T01:57:47.266Z,99.99
2018-05-17T01:59:40.534Z,99.99
2018-05-17T02:00:40.468Z,99.99
2018-05-17T02:02:33.754Z,99.99
2018-05-17T02:03:33.667Z,99.99
2018-05-17T02:05:27.062Z,99.99
2018-05-17T02:06:26.872Z,99.99
2018-05-17T02:08:20.244Z,99.99
2018-05-17T02:09:20.070Z,99.99
2018-05-17T02:11:13.355Z,99.99
2018-05-17T02:12:13.271Z,99.99
2018-05-17T02:14:06.537Z,99.99
2018-05-17T02:15:06.470Z,99.99
2018-05-17T02:16:59.757Z,99.99
2018-05-17T02:17:59.671Z,99.99
2018-05-17T02:19:53.048Z,99.99
2018-05-17T02:20:52.870Z,99.99
2018-05-17T02:22:46.157Z,99.99
2018-05-17T02:23:46.073Z,99.99
2018-05-17T02:25:39.358Z,99.99
2018-05-17T02:26:39.273Z,99.99
2018-05-17T02:28:32.537Z,99.99
2018-05-17T02:29:32.474Z,99.99
2018-05-17T02:31:25.760Z,98.60
2018-05-17T02:32:25.675Z,98.65
2018-05-17T02:34:19.049Z,98.84
2018-05-17T02:35:18.875Z,99.03
2018-05-17T02:37:12.269Z,99.79
2018-05-17T02:38:12.066Z,99.79
2018-05-17T02:40:05.370Z,99.03
2018-05-17T02:41:05.273Z,98.65
2018-05-17T02:42:58.643Z,98.27
2018-05-17T02:43:58.467Z,97.41
2018-05-17T02:45:51.866Z,97.41
2018-05-17T02:46:51.668Z,97.17
2018-05-17T02:48:45.044Z,96.55
2018-05-17T02:49:44.871Z,97.03
2018-05-17T02:51:38.153Z,96.94
2018-05-17T02:52:38.070Z,96.17
2018-05-17T02:54:31.334Z,95.51
2018-05-17T02:55:31.268Z,95.12
2018-05-17T02:57:24.556Z,95.60
2018-05-17T02:58:24.470Z,95.03
2018-05-17T03:00:17.737Z,94.27
2018-05-17T03:01:17.669Z,94.08
2018-05-17T03:03:10.954Z,94.37
2018-05-17T03:04:10.869Z,94.17
2018-05-17T03:06:04.153Z,93.79
2018-05-17T03:07:04.069Z,93.79
2018-05-17T03:08:57.334Z,93.03
2018-05-17T03:09:57.267Z,93.13
2018-05-17T03:11:50.660Z,92.18
2018-05-17T03:12:50.466Z,92.65
2018-05-17T03:14:43.733Z,92.27
2018-05-17T03:15:43.665Z,92.84
2018-05-17T03:17:36.944Z,92.46
2018-05-17T03:18:36.859Z,92.84
2018-05-17T03:20:30.128Z,94.17
2018-05-17T03:21:30.068Z,93.70
2018-05-17T03:23:23.344Z,93.03
2018-05-17T03:24:23.260Z,93.13
2018-05-17T03:26:16.543Z,92.84
2018-05-17T03:27:16.457Z,93.60
2018-05-17T03:29:09.724Z,93.41
2018-05-17T03:30:09.655Z,93.60
2018-05-17T03:32:02.941Z,92.84
2018-05-17T03:33:02.855Z,93.22
2018-05-17T03:34:56.121Z,92.36
2018-05-17T03:35:56.055Z,92.65
2018-05-17T03:37:49.342Z,92.46
2018-05-17T03:38:49.256Z,92.65
2018-05-17T03:40:42.629Z,92.94
2018-05-17T03:41:42.454Z,92.65
2018-05-17T03:43:35.740Z,91.99
2018-05-17T03:44:35.653Z,92.36
2018-05-17T03:46:28.942Z,91.79
2018-05-17T03:47:28.855Z,92.36
2018-05-17T03:49:22.123Z,92.65
2018-05-17T03:50:22.055Z,92.46
2018-05-17T03:52:15.339Z,92.55
2018-05-17T03:53:15.255Z,92.46
2018-05-17T03:55:08.524Z,93.41
2018-05-17T03:56:08.454Z,93.79
2018-05-17T03:58:01.851Z,93.41
2018-05-17T03:59:01.647Z,94.08
2018-05-17T04:00:55.020Z,93.98
2018-05-17T04:01:54.845Z,94.84
2018-05-17T04:03:48.130Z,94.65
2018-05-17T04:04:48.050Z,95.41
2018-05-17T04:06:41.329Z,95.51
2018-05-17T04:07:41.242Z,96.17
2018-05-17T04:09:34.509Z,96.36
2018-05-17T04:10:34.446Z,95.89
2018-05-17T04:12:27.726Z,95.79
2018-05-17T04:13:27.641Z,95.89
2018-05-17T04:15:20.910Z,96.46
2018-05-17T04:16:20.846Z,96.27
2018-05-17T04:18:14.235Z,95.60
2018-05-17T04:19:14.041Z,94.93
2018-05-17T04:21:07.308Z,94.17
2018-05-17T04:22:07.241Z,93.32
2018-05-17T04:24:00.635Z,93.70
2018-05-17T04:25:00.441Z,93.70
2018-05-17T04:26:53.833Z,94.32
2018-05-17T04:27:53.644Z,93.89
2018-05-17T04:29:47.015Z,94.46
2018-05-17T04:30:46.841Z,94.74
2018-05-17T04:32:40.125Z,95.08
2018-05-17T04:33:40.040Z,94.37
2018-05-17T04:35:33.308Z,94.37
2018-05-17T04:36:33.241Z,94.27
2018-05-17T04:38:26.527Z,94.74
2018-05-17T04:39:26.441Z,94.93
2018-05-17T04:41:19.728Z,94.65
2018-05-17T04:42:19.643Z,95.03
2018-05-17T04:44:12.927Z,94.93
2018-05-17T04:45:12.840Z,94.84
2018-05-17T04:47:06.153Z,95.27
2018-05-17T04:48:06.041Z,94.98
2018-05-17T04:49:59.306Z,93.89
2018-05-17T04:50:59.238Z,94.46
2018-05-17T04:52:52.525Z,94.22
2018-05-17T04:53:52.438Z,94.22
2018-05-17T04:55:45.705Z,92.22
2018-05-17T04:56:45.640Z,92.41
2018-05-17T04:58:38.926Z,93.03
2018-05-17T04:59:38.839Z,92.89
2018-05-17T05:01:32.232Z,93.37
2018-05-17T05:02:32.049Z,92.69
2018-05-17T05:04:25.438Z,91.74
2018-05-17T05:05:25.242Z,91.84
2018-05-17T05:07:19.138Z,91.08
2018-05-17T05:08:18.444Z,90.89
2018-05-17T05:10:11.819Z,91.27
2018-05-17T05:11:11.645Z,90.08
2018-05-17T05:13:05.040Z,90.60
2018-05-17T05:14:04.848Z,91.17
2018-05-17T05:15:58.113Z,90.60
2018-05-17T05:16:58.048Z,90.31
2018-05-17T05:18:51.335Z,89.26
2018-05-17T05:19:51.248Z,90.12
2018-05-17T05:21:44.649Z,89.65
2018-05-17T05:22:44.452Z,88.74
2018-05-17T05:24:37.720Z,88.41
2018-05-17T05:25:37.652Z,88.12
2018-05-17T05:27:30.942Z,88.41
2018-05-17T05:28:30.857Z,87.74
2018-05-17T05:30:24.125Z,87.46
2018-05-17T05:31:24.059Z,88.03
2018-05-17T05:33:17.352Z,86.88
2018-05-17T05:34:17.265Z,87.07
2018-05-17T05:36:10.533Z,87.07
2018-05-17T05:37:10.466Z,86.41
2018-05-17T05:39:03.754Z,86.60
2018-05-17T05:40:03.671Z,86.98
2018-05-17T05:41:57.066Z,88.12
2018-05-17T05:42:56.873Z,89.26
2018-05-17T05:44:50.147Z,87.46
2018-05-17T05:45:50.081Z,87.07
2018-05-17T05:47:43.477Z,87.60
2018-05-17T05:48:43.327Z,87.69
2018-05-17T05:50:36.593Z,85.88
2018-05-17T05:51:36.526Z,86.12
2018-05-17T05:53:29.922Z,86.88
2018-05-17T05:54:29.735Z,87.46
2018-05-17T05:56:23.004Z,87.46
2018-05-17T05:57:22.934Z,87.74
2018-05-17T05:59:16.223Z,86.69
2018-05-17T06:00:16.141Z,86.79
2018-05-17T06:02:09.443Z,87.46
2018-05-17T06:03:09.344Z,86.74
2018-05-17T06:05:02.612Z,87.02
2018-05-17T06:06:02.546Z,86.65
2018-05-17T06:07:55.939Z,85.21
2018-05-17T06:08:55.740Z,85.41
2018-05-17T06:10:49.114Z,87.36
2018-05-17T06:11:48.941Z,87.84
2018-05-17T06:13:42.337Z,86.83
2018-05-17T06:14:42.144Z,86.55
2018-05-17T06:16:35.414Z,85.31
2018-05-17T06:17:35.349Z,85.64
2018-05-17T06:19:28.633Z,83.50
2018-05-17T06:20:28.551Z,83.69
2018-05-17T06:22:21.950Z,84.45
2018-05-17T06:23:21.754Z,84.45
2018-05-17T06:25:15.024Z,84.41
2018-05-17T06:26:14.958Z,85.27
2018-05-17T06:28:08.858Z,85.64
2018-05-17T06:29:08.151Z,86.22
2018-05-17T06:31:01.423Z,85.46
2018-05-17T06:32:01.357Z,84.60
2018-05-17T06:33:54.644Z,84.98
2018-05-17T06:34:54.559Z,84.60
2018-05-17T06:36:47.827Z,85.27
2018-05-17T06:37:47.760Z,84.69
2018-05-17T06:39:41.157Z,83.69
2018-05-17T06:40:40.966Z,83.40
2018-05-17T06:42:34.257Z,82.54
2018-05-17T06:43:34.166Z,82.01
2018-05-17T06:45:27.435Z,80.87
2018-05-17T06:46:27.370Z,81.88
2018-05-17T06:48:20.657Z,82.92
2018-05-17T06:49:20.573Z,82.54
2018-05-17T06:51:13.954Z,80.83
2018-05-17T06:52:13.777Z,82.35
2018-05-17T06:54:07.070Z,82.17
2018-05-17T06:55:06.981Z,82.73
2018-05-17T06:57:00.251Z,82.07
2018-05-17T06:58:00.189Z,81.68
2018-05-17T06:59:54.085Z,81.30
2018-05-17T07:00:53.403Z,81.97
2018-05-17T07:02:46.792Z,81.68
2018-05-17T07:03:46.599Z,81.73
2018-05-17T07:05:39.880Z,80.20
2018-05-17T07:06:39.805Z,79.91
2018-05-17T07:08:33.093Z,80.20
2018-05-17T07:09:33.008Z,80.39
2018-05-17T07:11:26.280Z,79.68
2018-05-17T07:12:26.215Z,80.83
2018-05-17T07:14:19.508Z,81.21
2018-05-17T07:15:19.421Z,81.21
2018-05-17T07:17:12.692Z,80.83
2018-05-17T07:18:12.805Z,81.78
2018-05-17T07:20:06.024Z,81.30
2018-05-17T07:21:05.833Z,80.77
2018-05-17T07:22:59.229Z,79.82
2018-05-17T07:23:59.039Z,80.01
2018-05-17T07:25:52.415Z,79.91
2018-05-17T07:26:52.243Z,78.49
2018-05-17T07:28:45.630Z,78.86
2018-05-17T07:29:45.610Z,78.67
2018-05-17T07:31:39.421Z,79.82
2018-05-17T07:32:38.748Z,79.53
2018-05-17T07:34:32.146Z,78.67
2018-05-17T07:35:31.954Z,78.58
2018-05-17T07:37:25.327Z,79.35
2018-05-17T07:38:25.257Z,78.58
2018-05-17T07:40:18.545Z,78.58
2018-05-17T07:41:18.465Z,77.53
2018-05-17T07:43:11.750Z,75.37
2018-05-17T07:44:11.672Z,75.09
2018-05-17T07:46:04.940Z,74.55
2018-05-17T07:47:04.878Z,74.17
2018-05-17T07:48:58.279Z,74.93
2018-05-17T07:49:58.073Z,74.93
2018-05-17T07:51:51.347Z,75.09
2018-05-17T07:52:51.290Z,75.18
2018-05-17T07:54:44.678Z,76.42
2018-05-17T07:55:44.480Z,76.62
2018-05-17T07:57:37.858Z,76.04
2018-05-17T07:58:37.686Z,75.28
2018-05-17T08:00:31.042Z,75.76
2018-05-17T08:01:30.882Z,75.76
2018-05-17T08:03:24.178Z,76.52
2018-05-17T08:04:24.093Z,76.14
2018-05-17T08:06:17.472Z,75.57
2018-05-17T08:07:17.292Z,75.28
2018-05-17T08:09:10.577Z,75.66
2018-05-17T08:10:10.493Z,74.84
2018-05-17T08:12:03.766Z,73.60
2018-05-17T08:13:03.701Z,73.16
2018-05-17T08:14:56.984Z,71.72
2018-05-17T08:15:56.903Z,71.28
2018-05-17T08:17:50.172Z,71.59
2018-05-17T08:18:50.104Z,72.51
2018-05-17T08:20:43.501Z,74.13
2018-05-17T08:21:43.314Z,74.42
2018-05-17T08:23:36.608Z,73.32
2018-05-17T08:24:36.523Z,72.45
2018-05-17T08:26:29.799Z,72.23
2018-05-17T08:27:29.733Z,72.26
2018-05-17T08:29:23.026Z,72.93
2018-05-17T08:30:22.936Z,72.23
2018-05-17T08:32:16.320Z,71.15
2018-05-17T08:33:16.132Z,69.82
2018-05-17T08:35:09.420Z,71.12
2018-05-17T08:36:09.437Z,71.02
2018-05-17T08:38:02.718Z,70.58
2018-05-17T08:39:02.544Z,69.15
2018-05-17T08:40:55.826Z,69.91
2018-05-17T08:41:55.746Z,69.09
2018-05-17T08:43:49.027Z,69.72
2018-05-17T08:44:48.947Z,70.58
2018-05-17T08:46:42.327Z,68.84
2018-05-17T08:47:42.150Z,68.90
2018-05-17T08:49:35.435Z,70.01
2018-05-17T08:50:35.349Z,69.85
2018-05-17T08:52:28.622Z,66.67
2018-05-17T08:53:28.560Z,66.35
2018-05-17T08:55:21.845Z,70.01
2018-05-17T08:56:21.763Z,70.20
2018-05-17T08:58:15.035Z,68.99
2018-05-17T08:59:14.967Z,68.13
2018-05-17T09:01:08.251Z,67.75
2018-05-17T09:02:08.170Z,67.02
2018-05-17T09:04:01.456Z,65.23
2018-05-17T09:05:01.376Z,65.42
2018-05-17T09:06:54.643Z,62.81
2018-05-17T09:07:54.580Z,61.31
2018-05-17T09:09:47.865Z,62.40
2018-05-17T09:10:47.787Z,63.70
2018-05-17T09:12:41.055Z,65.01
2018-05-17T09:13:41.073Z,65.68
2018-05-17T09:15:34.282Z,66.83
2018-05-17T09:16:34.201Z,65.81
2018-05-17T09:18:27.470Z,63.64
2018-05-17T09:19:27.410Z,62.14
2018-05-17T09:21:20.698Z,63.51
2018-05-17T09:22:20.621Z,64.47
2018-05-17T09:24:13.913Z,63.16
2018-05-17T09:25:13.829Z,61.40
2018-05-17T09:27:07.110Z,60.83
2018-05-17T09:28:07.047Z,64.82
2018-05-17T09:30:00.341Z,67.05
2018-05-17T09:31:00.262Z,64.79
2018-05-17T09:32:53.521Z,62.26
2018-05-17T09:33:53.460Z,60.19
2018-05-17T09:35:46.847Z,59.52
2018-05-17T09:36:46.671Z,59.87
2018-05-17T09:38:40.055Z,63.93
2018-05-17T09:39:39.881Z,63.96
2018-05-17T09:41:33.169Z,58.71
2018-05-17T09:42:33.092Z,58.81
2018-05-17T09:44:26.393Z,57.28
2018-05-17T09:45:26.316Z,56.09
2018-05-17T09:47:19.588Z,60.70
2018-05-17T09:48:19.528Z,60.32
2018-05-17T09:50:12.931Z,62.20
2018-05-17T09:51:12.740Z,60.06
2018-05-17T09:53:06.014Z,55.10
2018-05-17T09:54:05.960Z,52.81
2018-05-17T09:55:59.248Z,54.44
2018-05-17T09:56:59.169Z,55.75
2018-05-17T09:58:52.553Z,56.94
2018-05-17T09:59:52.387Z,57.86
2018-05-17T10:01:45.677Z,57.50
2018-05-17T10:02:45.600Z,55.90
2018-05-17T10:04:38.893Z,54.82
2018-05-17T10:05:38.816Z,55.16
2018-05-17T10:07:32.096Z,55.01
2018-05-17T10:08:32.035Z,55.93
2018-05-17T10:10:25.445Z,50.08
2018-05-17T10:11:25.270Z,48.59
2018-05-17T10:13:18.582Z,49.10
2018-05-17T10:14:18.489Z,52.08
2018-05-17T10:16:11.869Z,49.72
2018-05-17T10:17:11.709Z,48.66
2018-05-17T10:19:04.990Z,52.40
2018-05-17T10:20:04.931Z,56.48
2018-05-17T10:21:58.228Z,55.32
2018-05-17T10:22:58.204Z,54.94
2018-05-17T10:24:51.656Z,57.30
2018-05-17T10:25:51.399Z,55.12
2018-05-17T10:27:44.651Z,50.87
2018-05-17T10:28:44.593Z,49.24
2018-05-17T10:30:37.892Z,50.46
2018-05-17T10:31:37.810Z,50.32
2018-05-17T10:33:31.111Z,50.68
2018-05-17T10:34:31.054Z,52.00
2018-05-17T10:36:24.351Z,53.34
2018-05-17T10:37:24.274Z,54.46
2018-05-17T10:39:17.552Z,57.09
2018-05-17T10:40:17.537Z,57.89
2018-05-17T10:42:10.815Z,57.09
2018-05-17T10:43:10.717Z,58.05
2018-05-17T10:45:03.994Z,60.00
2018-05-17T10:46:03.936Z,57.95
2018-05-17T10:47:57.344Z,59.30
2018-05-17T10:48:57.241Z,59.77
2018-05-17T10:50:50.455Z,58.84
2018-05-17T10:51:50.400Z,57.75
2018-05-17T10:53:43.657Z,57.86
2018-05-17T10:54:43.598Z,58.24
2018-05-17T10:56:37.528Z,57.43
2018-05-17T10:57:36.877Z,55.13
2018-05-17T10:59:30.094Z,53.53
2018-05-17T11:00:30.041Z,52.98
2018-05-17T11:02:23.346Z,54.34
2018-05-17T11:03:23.269Z,55.71
2018-05-17T11:05:16.682Z,54.30
2018-05-17T11:06:16.556Z,55.23
2018-05-17T11:08:09.794Z,54.49
2018-05-17T11:09:09.716Z,54.94
2018-05-17T11:11:03.010Z,54.80
2018-05-17T11:12:02.933Z,54.33
2018-05-17T11:13:56.362Z,53.11
2018-05-17T11:14:56.198Z,53.08
2018-05-17T11:16:49.449Z,56.79
2018-05-17T11:17:49.417Z,55.58
2018-05-17T11:19:42.650Z,58.27
2018-05-17T11:20:42.594Z,57.79
2018-05-17T11:22:35.998Z,55.83
2018-05-17T11:23:35.812Z,54.01
2018-05-17T11:25:29.246Z,55.21
2018-05-17T11:26:29.033Z,56.45
2018-05-17T11:28:22.330Z,58.05
2018-05-17T11:29:22.251Z,57.95
2018-05-17T11:31:15.657Z,57.50
2018-05-17T11:32:15.469Z,56.67
2018-05-17T11:34:08.744Z,52.57
2018-05-17T11:35:08.685Z,51.42
2018-05-17T11:37:02.098Z,54.34
2018-05-17T11:38:01.924Z,54.82
2018-05-17T11:39:55.305Z,55.21
2018-05-17T11:40:55.133Z,55.58
2018-05-17T11:42:48.425Z,57.31
2018-05-17T11:43:48.345Z,56.74
2018-05-17T11:45:41.619Z,57.03
2018-05-17T11:46:41.562Z,58.15
2018-05-17T11:48:34.963Z,58.46
2018-05-17T11:49:34.774Z,57.89
2018-05-17T11:51:28.062Z,57.79
2018-05-17T11:52:27.980Z,56.64
2018-05-17T11:54:21.326Z,57.83
2018-05-17T11:55:21.266Z,58.24
2018-05-17T11:57:14.556Z,57.95
2018-05-17T11:58:14.475Z,58.27
2018-05-17T12:00:07.751Z,58.17
2018-05-17T12:01:07.688Z,58.27
2018-05-17T12:03:01.088Z,56.57
2018-05-17T12:04:00.895Z,57.43
2018-05-17T12:05:54.276Z,55.23
2018-05-17T12:06:54.102Z,54.75
2018-05-17T12:08:47.411Z,54.63
2018-05-17T12:09:47.318Z,55.27
2018-05-17T12:11:40.600Z,55.21
2018-05-17T12:12:40.521Z,54.72
2018-05-17T12:14:33.790Z,54.30
2018-05-17T12:15:33.732Z,53.44
2018-05-17T12:17:28.020Z,54.37
2018-05-17T12:18:27.940Z,55.40
2018-05-17T12:20:21.212Z,55.23
2018-05-17T12:21:21.147Z,55.13
2018-05-17T12:23:14.436Z,55.26
2018-05-17T12:24:15.038Z,55.13
2018-05-17T12:26:07.645Z,54.66
2018-05-17T12:27:07.566Z,55.33
2018-05-17T12:29:00.854Z,55.87
2018-05-17T12:30:00.773Z,56.45
2018-05-17T12:31:54.191Z,56.96
2018-05-17T12:32:54.662Z,55.42
2018-05-17T12:34:48.366Z,56.12
2018-05-17T12:35:48.201Z,56.00
2018-05-17T12:37:41.490Z,55.90
2018-05-17T12:38:43.070Z,56.29
2018-05-17T12:40:34.791Z,57.18
2018-05-17T12:41:34.627Z,56.60
2018-05-17T12:43:29.030Z,56.70
2018-05-17T12:44:28.843Z,57.15
2018-05-17T12:46:22.138Z,58.11
2018-05-17T12:47:22.052Z,57.95
2018-05-17T12:49:15.327Z,57.82
2018-05-17T12:50:15.268Z,58.59
2018-05-17T12:52:08.556Z,57.28
2018-05-17T12:53:08.477Z,56.48
2018-05-17T12:55:01.762Z,56.38
2018-05-17T12:56:01.688Z,56.00
2018-05-17T12:57:54.981Z,55.33
2018-05-17T12:58:54.956Z,55.04
2018-05-17T13:00:48.282Z,53.99
2018-05-17T13:01:48.110Z,54.66
2018-05-17T13:03:41.429Z,54.21
2018-05-17T13:04:41.347Z,54.39
2018-05-17T13:06:34.637Z,54.21
2018-05-17T13:07:34.561Z,54.49
2018-05-17T13:09:27.827Z,54.11
2018-05-17T13:10:27.766Z,54.08
2018-05-17T13:12:21.057Z,54.37
2018-05-17T13:13:21.053Z,55.49
2018-05-17T13:15:14.360Z,54.46
2018-05-17T13:16:14.185Z,53.82
2018-05-17T13:18:07.588Z,53.53
2018-05-17T13:19:07.442Z,54.30
2018-05-17T13:21:00.664Z,54.72
2018-05-17T13:22:00.643Z,56.29
2018-05-17T13:23:53.891Z,55.45
2018-05-17T13:24:53.877Z,55.26
2018-05-17T13:26:47.102Z,54.04
2018-05-17T13:27:47.026Z,52.86
2018-05-17T13:29:40.297Z,53.72
2018-05-17T13:30:40.240Z,54.68
2018-05-17T13:32:33.636Z,54.88
2018-05-17T13:33:33.439Z,55.38
2018-05-17T13:35:26.710Z,54.42
2018-05-17T13:36:26.650Z,54.52
2018-05-17T13:38:19.946Z,51.90
2018-05-17T13:39:19.871Z,52.55
2018-05-17T13:41:13.140Z,54.46
2018-05-17T13:42:13.080Z,54.75
2018-05-17T13:44:06.372Z,54.49
2018-05-17T13:45:06.290Z,54.30
2018-05-17T13:47:00.269Z,55.00
2018-05-17T13:47:59.608Z,55.38
2018-05-17T13:49:52.883Z,55.23
2018-05-17T13:50:52.711Z,55.68
2018-05-17T13:52:46.000Z,56.48
2018-05-17T13:53:45.921Z,55.80
2018-05-17T13:55:39.281Z,56.02
2018-05-17T13:56:39.124Z,55.83
2018-05-17T13:58:32.422Z,55.45
2018-05-17T13:59:32.386Z,55.19
2018-05-17T14:01:25.724Z,53.97
2018-05-17T14:02:25.578Z,53.58
2018-05-17T14:04:18.954Z,52.89
2018-05-17T14:05:18.809Z,52.98
2018-05-17T14:07:12.185Z,52.86
2018-05-17T14:08:12.646Z,52.67
2018-05-17T14:10:05.325Z,52.38
2018-05-17T14:11:05.268Z,53.05
2018-05-17T14:12:58.556Z,53.12
2018-05-17T14:13:58.474Z,54.17
2018-05-17T14:15:51.923Z,53.99
2018-05-17T14:16:51.730Z,54.01
2018-05-17T14:18:44.980Z,53.72
2018-05-17T14:19:44.899Z,52.48
2018-05-17T14:21:38.288Z,54.46
2018-05-17T14:22:38.108Z,54.75
2018-05-17T14:24:31.397Z,53.82
2018-05-17T14:25:31.318Z,53.15
2018-05-17T14:27:24.627Z,52.95
2018-05-17T14:28:24.538Z,52.95
2018-05-17T14:30:17.921Z,52.09
2018-05-17T14:31:17.751Z,52.09
2018-05-17T14:33:11.035Z,51.81
2018-05-17T14:34:10.956Z,51.06
2018-05-17T14:36:04.225Z,50.27
2018-05-17T14:37:04.165Z,50.53
2018-05-17T14:38:57.454Z,51.71
2018-05-17T14:39:57.376Z,51.90
2018-05-17T14:41:50.647Z,52.02
2018-05-17T14:42:50.585Z,52.67
2018-05-17T14:44:43.876Z,52.98
2018-05-17T14:45:43.796Z,53.17
2018-05-17T14:47:37.087Z,54.04
2018-05-17T14:48:37.002Z,53.08
2018-05-17T14:50:30.391Z,53.85
2018-05-17T14:51:30.216Z,54.42
2018-05-17T14:53:23.621Z,54.49
2018-05-17T14:54:23.428Z,54.58
2018-05-17T14:56:16.699Z,55.74
2018-05-17T14:57:16.639Z,55.47
2018-05-17T14:59:09.929Z,55.38
2018-05-17T15:00:09.851Z,54.23
2018-05-17T15:02:03.121Z,54.27
2018-05-17T15:03:03.060Z,53.79
2018-05-17T15:04:56.349Z,53.91
2018-05-17T15:05:56.269Z,53.44
2018-05-17T15:07:49.560Z,52.50
2018-05-17T15:08:49.483Z,52.69
2018-05-17T15:10:42.869Z,52.95
2018-05-17T15:11:42.692Z,53.82
2018-05-17T15:13:35.981Z,54.30
2018-05-17T15:14:35.906Z,53.17
2018-05-17T15:16:29.287Z,54.58
2018-05-17T15:17:29.113Z,55.16
2018-05-17T15:19:22.404Z,54.49
2018-05-17T15:20:22.322Z,56.02
2018-05-17T15:22:15.595Z,57.18
2018-05-17T15:23:15.539Z,56.51
2018-05-17T15:25:08.822Z,55.93
2018-05-17T15:26:08.742Z,55.93
2018-05-17T15:28:02.035Z,56.05
2018-05-17T15:29:01.953Z,56.05
2018-05-17T15:30:55.223Z,56.70
2018-05-17T15:31:55.163Z,56.89
2018-05-17T15:33:48.627Z,56.12
2018-05-17T15:34:48.375Z,56.38
2018-05-17T15:36:41.658Z,56.57
2018-05-17T15:37:41.598Z,57.18
2018-05-17T15:39:35.001Z,57.28
2018-05-17T15:40:34.807Z,56.89
2018-05-17T15:42:28.192Z,57.08
2018-05-17T15:43:28.018Z,56.41
2018-05-17T15:45:21.347Z,56.79
2018-05-17T15:46:21.258Z,57.15
2018-05-17T15:48:14.573Z,57.82
2018-05-17T15:49:14.477Z,58.01
2018-05-17T15:51:07.746Z,57.85
2018-05-17T15:52:07.732Z,57.92
2018-05-17T15:54:01.593Z,58.20
2018-05-17T15:55:00.894Z,58.20
2018-05-17T15:56:54.174Z,58.39
2018-05-17T15:57:54.109Z,58.87
2018-05-17T15:59:47.513Z,58.87
2018-05-17T16:00:47.317Z,58.78
2018-05-17T16:02:40.702Z,59.36
2018-05-17T16:03:40.530Z,59.64
2018-05-17T16:05:33.932Z,60.12
2018-05-17T16:06:33.754Z,60.31
2018-05-17T16:08:27.060Z,60.12
2018-05-17T16:09:26.943Z,60.12
2018-05-17T16:11:20.214Z,61.72
2018-05-17T16:12:20.155Z,61.63
2018-05-17T16:14:13.443Z,62.20
2018-05-17T16:15:13.599Z,62.49
2018-05-17T16:17:17.771Z,62.87
2018-05-17T16:18:17.644Z,63.16
2018-05-17T16:20:11.046Z,62.20
2018-05-17T16:21:10.851Z,63.16
2018-05-17T16:23:04.120Z,64.37
2018-05-17T16:24:04.059Z,64.02
2018-05-17T16:25:57.347Z,63.57
2018-05-17T16:26:57.267Z,62.71
2018-05-17T16:28:50.577Z,62.13
2018-05-17T16:29:50.492Z,63.19
2018-05-17T16:31:43.760Z,63.19
2018-05-17T16:32:43.731Z,63.19
2018-05-17T16:34:36.992Z,64.12
2018-05-17T16:35:36.906Z,64.25
2018-05-17T16:37:30.176Z,63.54
2018-05-17T16:38:30.117Z,64.66
2018-05-17T16:40:23.404Z,66.00
2018-05-17T16:41:23.324Z,65.52
2018-05-17T16:43:16.594Z,66.09
2018-05-17T16:44:16.532Z,65.62
2018-05-17T16:46:09.816Z,65.55
2018-05-17T16:47:09.740Z,65.23
2018-05-17T16:49:03.028Z,65.62
2018-05-17T16:50:02.947Z,66.67
2018-05-17T16:51:56.224Z,66.58
2018-05-17T16:52:56.165Z,66.58
2018-05-17T16:54:49.440Z,66.09
2018-05-17T16:55:49.362Z,66.09
2018-05-17T16:57:42.752Z,66.48
2018-05-17T16:58:42.635Z,67.34
2018-05-17T17:00:35.914Z,67.05
2018-05-17T17:01:35.787Z,67.69
2018-05-17T17:03:29.057Z,68.94
2018-05-17T17:04:28.997Z,69.48
2018-05-17T17:06:22.294Z,69.76
2018-05-17T17:07:22.217Z,69.86
2018-05-17T17:09:15.497Z,69.89
2018-05-17T17:10:15.417Z,69.51
2018-05-17T17:12:08.685Z,69.60
2018-05-17T17:13:08.622Z,69.03
2018-05-17T17:15:01.907Z,69.19
2018-05-17T17:16:01.832Z,69.86
2018-05-17T17:17:55.149Z,69.70
2018-05-17T17:18:55.033Z,69.23
2018-05-17T17:20:48.333Z,69.48
2018-05-17T17:21:48.253Z,71.01
2018-05-17T17:23:41.636Z,71.64
2018-05-17T17:24:41.458Z,72.02
2018-05-17T17:26:34.744Z,71.68
2018-05-17T17:27:34.664Z,70.91
2018-05-17T17:29:27.951Z,71.39
2018-05-17T17:30:27.866Z,70.91
2018-05-17T17:32:21.135Z,72.60
2018-05-17T17:33:21.069Z,72.79
2018-05-17T17:35:14.380Z,72.69
2018-05-17T17:36:14.343Z,72.50
2018-05-17T17:38:07.570Z,72.50
2018-05-17T17:39:07.508Z,72.50
2018-05-17T17:41:00.794Z,71.77
2018-05-17T17:42:00.710Z,71.20
2018-05-17T17:43:53.985Z,71.97
2018-05-17T17:44:53.915Z,71.64
2018-05-17T17:46:47.212Z,73.43
2018-05-17T17:47:47.118Z,73.75
2018-05-17T17:49:40.402Z,73.08
2018-05-17T17:50:40.350Z,73.46
2018-05-17T17:52:33.585Z,73.55
2018-05-17T17:53:33.521Z,72.69
2018-05-17T17:55:26.822Z,74.09
2018-05-17T17:56:26.726Z,74.66
2018-05-17T17:58:20.020Z,74.95
2018-05-17T17:59:19.925Z,74.66
2018-05-17T18:01:13.227Z,75.52
2018-05-17T18:02:13.128Z,75.05
2018-05-17T18:04:06.390Z,74.95
2018-05-17T18:05:06.399Z,75.71
2018-05-17T18:06:59.622Z,76.00
2018-05-17T18:07:59.540Z,76.29
2018-05-17T18:09:52.953Z,75.71
2018-05-17T18:10:52.740Z,75.71
2018-05-17T18:12:46.853Z,76.54
2018-05-17T18:13:46.790Z,77.30
2018-05-17T18:15:40.071Z,77.97
2018-05-17T18:16:39.987Z,77.74
2018-05-17T18:18:33.331Z,78.13
2018-05-17T18:19:33.267Z,77.97
2018-05-17T18:21:26.551Z,77.45
2018-05-17T18:22:26.467Z,78.22
2018-05-17T18:24:19.729Z,79.12
2018-05-17T18:25:19.666Z,78.26
2018-05-17T18:27:12.949Z,78.36
2018-05-17T18:28:12.867Z,78.36
2018-05-17T18:30:06.148Z,77.87
2018-05-17T18:31:06.071Z,78.03
2018-05-17T18:32:59.444Z,78.03
2018-05-17T18:33:59.348Z,78.07
2018-05-17T18:35:53.684Z,78.70